createdAt,value
2023-05-06T00:02:17.685Z,59.23
2023-05-06T00:04:45.967Z,59.16
2023-05-06T00:07:14.238Z,59.29
2023-05-06T00:09:42.295Z,59.36
2023-05-06T00:12:10.466Z,59.38
2023-05-06T00:14:38.743Z,59.46
2023-05-06T00:17:07.337Z,59.58
2023-05-06T00:19:35.496Z,59.57
2023-05-06T00:22:03.567Z,59.67
2023-05-06T00:24:31.735Z,59.67
2023-05-06T00:26:59.912Z,59.71
2023-05-06T00:29:28.088Z,59.79
2023-05-06T00:31:56.359Z,59.81
2023-05-06T00:34:24.632Z,59.97
2023-05-06T00:36:52.704Z,60.02
2023-05-06T00:39:21.386Z,59.86
2023-05-06T00:41:49.561Z,60.05
2023-05-06T00:44:17.629Z,59.98
2023-05-06T00:46:46.006Z,59.86
2023-05-06T00:49:14.209Z,60.18
2023-05-06T00:51:42.451Z,60.24
2023-05-06T00:54:10.832Z,60.06
2023-05-06T00:56:39.307Z,60.25
2023-05-06T00:59:07.394Z,60.48
2023-05-06T01:01:35.805Z,60.55
2023-05-06T01:04:04.424Z,60.52
2023-05-06T01:06:58.930Z,60.55
2023-05-06T01:09:57.830Z,60.77
2023-05-06T01:12:46.911Z,60.76
2023-05-06T01:15:22.621Z,60.82
2023-05-06T01:17:52.269Z,60.95
2023-05-06T01:20:21.543Z,60.88
2023-05-06T01:22:50.226Z,60.84
2023-05-06T01:25:22.177Z,60.89
2023-05-06T01:27:50.768Z,61.07
2023-05-06T01:30:19.966Z,60.92
2023-05-06T01:33:04.545Z,61.02
2023-05-06T01:35:50.208Z,61.15
2023-05-06T01:38:34.572Z,61.51
2023-05-06T01:41:03.552Z,61.25
2023-05-06T01:43:37.758Z,61.39
2023-05-06T01:46:07.306Z,61.51
2023-05-06T01:48:37.494Z,61.53
2023-05-06T01:51:05.839Z,61.69
2023-05-06T01:53:34.038Z,61.97
2023-05-06T01:56:02.426Z,62.02
2023-05-06T01:58:30.706Z,62.14
2023-05-06T02:00:58.753Z,62.20
2023-05-06T02:03:27.113Z,62.44
2023-05-06T02:05:55.824Z,63.00
2023-05-06T02:08:25.852Z,63.06
2023-05-06T02:10:54.320Z,63.20
2023-05-06T02:13:23.305Z,63.56
2023-05-06T02:15:55.064Z,63.64
2023-05-06T02:18:24.048Z,64.19
2023-05-06T02:20:52.323Z,64.53
2023-05-06T02:23:20.495Z,64.74
2023-05-06T02:25:48.578Z,65.00
2023-05-06T02:28:16.846Z,65.07
2023-05-06T02:30:45.117Z,65.36
2023-05-06T02:33:13.191Z,65.69
2023-05-06T02:35:41.256Z,66.11
2023-05-06T02:38:10.250Z,66.22
2023-05-06T02:40:38.546Z,66.46
2023-05-06T02:43:07.018Z,67.28
2023-05-06T02:45:35.619Z,67.36
2023-05-06T02:48:04.226Z,67.52
2023-05-06T02:50:32.556Z,68.10
2023-05-06T02:53:00.711Z,68.14
2023-05-06T02:55:28.890Z,68.35
2023-05-06T02:57:57.083Z,68.98
2023-05-06T03:00:25.250Z,69.46
2023-05-06T03:02:53.507Z,69.78
2023-05-06T03:05:21.885Z,70.12
2023-05-06T03:07:50.161Z,70.27
2023-05-06T03:10:18.546Z,70.53
2023-05-06T03:12:47.148Z,70.95
2023-05-06T03:15:15.497Z,71.16
2023-05-06T03:17:43.699Z,71.51
2023-05-06T03:20:13.173Z,71.84
2023-05-06T03:22:44.105Z,72.22
2023-05-06T03:25:12.628Z,72.38
2023-05-06T03:27:41.778Z,72.43
2023-05-06T03:30:16.505Z,72.59
2023-05-06T03:32:45.113Z,72.91
2023-05-06T03:35:15.905Z,72.98
2023-05-06T03:37:45.433Z,73.17
2023-05-06T03:40:13.920Z,73.63
2023-05-06T03:42:42.085Z,74.02
2023-05-06T03:45:11.108Z,74.21
2023-05-06T03:47:39.885Z,74.46
2023-05-06T03:50:09.151Z,74.58
2023-05-06T03:52:38.051Z,74.68
2023-05-06T03:55:07.523Z,75.01
2023-05-06T03:57:36.857Z,75.04
2023-05-06T04:00:06.458Z,75.01
2023-05-06T04:02:44.302Z,75.58
2023-05-06T04:05:17.547Z,75.72
2023-05-06T04:07:46.430Z,75.79
2023-05-06T04:10:14.724Z,75.97
2023-05-06T04:12:44.001Z,76.00
2023-05-06T04:15:13.914Z,76.20
2023-05-06T04:17:43.585Z,76.38
2023-05-06T04:20:12.626Z,76.51
2023-05-06T04:22:41.501Z,76.83
2023-05-06T04:25:11.169Z,76.91
2023-05-06T04:27:39.694Z,76.78
2023-05-06T04:30:10.302Z,76.74
2023-05-06T04:32:40.765Z,77.18
2023-05-06T04:35:10.327Z,77.28
2023-05-06T04:37:39.762Z,77.51
2023-05-06T04:40:15.919Z,77.63
2023-05-06T04:42:44.601Z,77.95
2023-05-06T04:45:18.197Z,77.54
2023-05-06T04:47:48.957Z,77.84
2023-05-06T04:50:18.127Z,78.00
2023-05-06T04:52:46.302Z,78.37
2023-05-06T04:55:14.991Z,78.52
2023-05-06T04:57:47.499Z,78.95
2023-05-06T05:00:16.767Z,79.06
2023-05-06T05:02:45.198Z,79.20
2023-05-06T05:05:14.514Z,79.35
2023-05-06T05:07:43.526Z,79.61
2023-05-06T05:10:11.797Z,79.64
2023-05-06T05:12:40.309Z,79.27
2023-05-06T05:15:09.340Z,79.71
2023-05-06T05:17:38.191Z,79.99
2023-05-06T05:20:08.078Z,79.93
2023-05-06T05:22:37.480Z,80.06
2023-05-06T05:25:08.447Z,79.79
2023-05-06T05:27:36.994Z,79.86
2023-05-06T05:30:05.890Z,80.02
2023-05-06T05:32:35.664Z,80.36
2023-05-06T05:35:05.937Z,80.53
2023-05-06T05:37:34.907Z,80.76
2023-05-06T05:40:03.491Z,80.94
2023-05-06T05:42:33.934Z,80.75
2023-05-06T05:45:04.951Z,81.01
2023-05-06T05:47:33.992Z,81.12
2023-05-06T05:50:02.323Z,80.88
2023-05-06T05:52:31.717Z,81.20
2023-05-06T05:55:00.916Z,81.67
2023-05-06T05:57:29.195Z,81.61
2023-05-06T05:59:57.770Z,81.64
2023-05-06T06:02:26.416Z,81.99
2023-05-06T06:04:55.017Z,81.99
2023-05-06T06:07:24.443Z,82.28
2023-05-06T06:09:52.622Z,82.53
2023-05-06T06:12:20.995Z,82.80
2023-05-06T06:14:49.158Z,82.70
2023-05-06T06:17:19.375Z,82.82
2023-05-06T06:19:47.696Z,83.29
2023-05-06T06:22:15.831Z,83.31
2023-05-06T06:24:45.125Z,83.03
2023-05-06T06:27:13.295Z,82.87
2023-05-06T06:29:41.675Z,83.27
2023-05-06T06:32:09.803Z,83.47
2023-05-06T06:34:38.030Z,83.43
2023-05-06T06:37:07.852Z,83.63
2023-05-06T06:39:36.336Z,83.29
2023-05-06T06:42:04.592Z,83.20
2023-05-06T06:44:37.773Z,83.56
2023-05-06T06:47:06.156Z,83.47
2023-05-06T06:49:34.229Z,83.69
2023-05-06T06:52:02.493Z,84.08
2023-05-06T06:54:30.773Z,84.06
2023-05-06T06:56:58.945Z,84.02
2023-05-06T06:59:27.013Z,84.04
2023-05-06T07:01:55.081Z,84.49
2023-05-06T07:04:25.124Z,84.34
2023-05-06T07:06:53.373Z,84.23
2023-05-06T07:09:21.445Z,84.78
2023-05-06T07:11:49.617Z,84.72
2023-05-06T07:14:17.801Z,84.82
2023-05-06T07:16:47.121Z,84.97
2023-05-06T07:19:16.281Z,84.70
2023-05-06T07:21:44.571Z,84.89
2023-05-06T07:24:12.788Z,85.06
2023-05-06T07:26:40.919Z,85.09
2023-05-06T07:29:09.078Z,84.50
2023-05-06T07:31:37.232Z,84.34
2023-05-06T07:34:05.620Z,84.49
2023-05-06T07:36:40.420Z,84.46
2023-05-06T07:39:08.628Z,84.63
2023-05-06T07:41:36.797Z,84.75
2023-05-06T07:44:06.068Z,84.80
2023-05-06T07:46:34.380Z,84.69
2023-05-06T07:49:02.565Z,84.52
2023-05-06T07:51:31.635Z,84.61
2023-05-06T07:53:59.707Z,85.03
2023-05-06T07:56:27.990Z,84.60
2023-05-06T07:58:56.224Z,84.74
2023-05-06T08:01:24.340Z,84.75
2023-05-06T08:03:52.567Z,84.56
2023-05-06T08:06:20.976Z,84.57
2023-05-06T08:08:49.053Z,84.60
2023-05-06T08:11:19.332Z,84.67
2023-05-06T08:13:47.751Z,85.04
2023-05-06T08:16:16.129Z,85.13
2023-05-06T08:18:44.297Z,85.12
2023-05-06T08:21:12.573Z,84.88
2023-05-06T08:23:40.849Z,84.51
2023-05-06T08:26:09.021Z,84.52
2023-05-06T08:28:37.089Z,84.36
2023-05-06T08:31:05.978Z,84.72
2023-05-06T08:33:34.179Z,85.14
2023-05-06T08:36:02.326Z,85.20
2023-05-06T08:38:30.404Z,85.19
2023-05-06T08:41:01.113Z,84.95
2023-05-06T08:43:33.191Z,85.01
2023-05-06T08:46:01.784Z,84.97
2023-05-06T08:48:30.165Z,84.69
2023-05-06T08:51:01.288Z,84.92
2023-05-06T08:53:30.694Z,84.74
2023-05-06T08:56:04.157Z,84.50
2023-05-06T08:58:43.421Z,84.82
2023-05-06T09:01:11.616Z,84.92
2023-05-06T09:03:39.881Z,84.52
2023-05-06T09:06:08.050Z,84.28
2023-05-06T09:08:36.530Z,84.14
2023-05-06T09:11:19.929Z,83.97
2023-05-06T09:13:48.254Z,83.81
2023-05-06T09:16:29.947Z,84.19
2023-05-06T09:18:59.417Z,84.17
2023-05-06T09:21:33.942Z,83.65
2023-05-06T09:24:03.964Z,83.62
2023-05-06T09:26:33.272Z,83.93
2023-05-06T09:29:02.370Z,84.07
2023-05-06T09:31:30.680Z,84.08
2023-05-06T09:34:01.152Z,84.61
2023-05-06T09:36:29.225Z,84.31
2023-05-06T09:38:58.007Z,84.06
2023-05-06T09:41:26.123Z,83.92
2023-05-06T09:43:55.571Z,84.05
2023-05-06T09:46:25.354Z,84.16
2023-05-06T09:48:55.787Z,84.27
2023-05-06T09:51:23.999Z,84.53
2023-05-06T09:53:52.776Z,84.29
2023-05-06T09:56:21.664Z,84.35
2023-05-06T09:58:51.080Z,84.49
2023-05-06T10:01:32.793Z,84.91
2023-05-06T10:04:09.423Z,85.12
2023-05-06T10:06:40.814Z,84.88
2023-05-06T10:09:09.762Z,85.03
2023-05-06T10:11:38.972Z,85.04
2023-05-06T10:14:07.441Z,84.73
2023-05-06T10:16:37.307Z,85.01
2023-05-06T10:19:06.936Z,84.43
2023-05-06T10:21:36.766Z,84.34
2023-05-06T10:24:11.912Z,84.52
2023-05-06T10:26:41.204Z,84.22
2023-05-06T10:29:10.970Z,84.59
2023-05-06T10:31:44.430Z,84.61
2023-05-06T10:34:12.679Z,84.55
2023-05-06T10:36:43.440Z,84.85
2023-05-06T10:39:13.918Z,84.79
2023-05-06T10:41:42.825Z,84.66
2023-05-06T10:44:11.098Z,85.03
2023-05-06T10:46:59.928Z,84.97
2023-05-06T10:49:28.236Z,84.95
2023-05-06T10:52:12.029Z,84.77
2023-05-06T10:54:51.421Z,84.76
2023-05-06T10:57:22.738Z,85.08
2023-05-06T10:59:50.926Z,85.26
2023-05-06T11:02:20.443Z,85.12
2023-05-06T11:04:53.306Z,84.97
2023-05-06T11:07:23.252Z,85.24
2023-05-06T11:09:56.060Z,85.23
2023-05-06T11:12:52.962Z,85.55
2023-05-06T11:15:27.493Z,85.60
2023-05-06T11:17:56.663Z,85.62
2023-05-06T11:20:26.292Z,85.62
2023-05-06T11:22:54.755Z,85.45
2023-05-06T11:25:42.759Z,85.44
2023-05-06T11:28:12.392Z,85.64
2023-05-06T11:30:44.730Z,85.97
2023-05-06T11:33:19.485Z,85.80
2023-05-06T11:35:48.174Z,85.78
2023-05-06T11:38:16.351Z,86.13
2023-05-06T11:40:44.422Z,86.21
2023-05-06T11:43:13.911Z,85.99
2023-05-06T11:45:47.113Z,85.78
2023-05-06T11:48:16.319Z,85.73
2023-05-06T11:50:46.505Z,85.88
2023-05-06T11:53:16.757Z,85.72
2023-05-06T11:55:46.426Z,85.77
2023-05-06T11:58:18.928Z,85.44
2023-05-06T12:00:58.394Z,85.61
2023-05-06T12:03:28.891Z,85.41
2023-05-06T12:05:57.784Z,85.12
2023-05-06T12:08:29.948Z,85.08
2023-05-06T12:11:02.883Z,84.92
2023-05-06T12:13:31.514Z,85.21
2023-05-06T12:16:00.267Z,85.53
2023-05-06T12:18:29.196Z,85.27
2023-05-06T12:20:57.775Z,85.57
2023-05-06T12:23:25.942Z,85.87
2023-05-06T12:26:06.951Z,85.66
2023-05-06T12:28:36.598Z,85.01
2023-05-06T12:31:24.329Z,85.08
2023-05-06T12:33:53.311Z,85.47
2023-05-06T12:36:22.954Z,85.30
2023-05-06T12:38:56.145Z,85.27
2023-05-06T12:41:37.330Z,84.95
2023-05-06T12:44:33.572Z,84.91
2023-05-06T12:47:03.769Z,85.14
2023-05-06T12:50:04.624Z,85.16
2023-05-06T12:52:32.681Z,85.54
2023-05-06T12:55:02.591Z,85.22
2023-05-06T12:57:30.770Z,85.32
2023-05-06T12:59:59.040Z,85.66
2023-05-06T13:02:27.208Z,85.49
2023-05-06T13:04:57.129Z,85.27
2023-05-06T13:07:25.499Z,85.12
2023-05-06T13:09:53.688Z,84.96
2023-05-06T13:12:21.742Z,85.10
2023-05-06T13:14:49.815Z,85.08
2023-05-06T13:17:18.023Z,85.26
2023-05-06T13:19:46.572Z,85.62
2023-05-06T13:22:14.693Z,85.76
2023-05-06T13:24:43.019Z,85.81
2023-05-06T13:27:11.803Z,85.71
2023-05-06T13:29:39.975Z,85.46
2023-05-06T13:32:09.081Z,85.72
2023-05-06T13:34:37.561Z,86.03
2023-05-06T13:37:05.927Z,86.11
2023-05-06T13:39:34.099Z,86.39
2023-05-06T13:42:03.494Z,86.07
2023-05-06T13:44:33.208Z,85.91
2023-05-06T13:47:01.488Z,85.93
2023-05-06T13:49:29.655Z,85.79
2023-05-06T13:51:58.541Z,85.96
2023-05-06T13:54:26.624Z,86.06
2023-05-06T13:56:55.094Z,86.02
2023-05-06T13:59:23.265Z,86.19
2023-05-06T14:01:54.311Z,86.56
2023-05-06T14:04:22.576Z,86.86
2023-05-06T14:06:50.753Z,86.84
2023-05-06T14:09:19.233Z,87.20
2023-05-06T14:11:47.504Z,87.35
2023-05-06T14:14:15.798Z,87.50
2023-05-06T14:16:44.010Z,87.51
2023-05-06T14:19:12.230Z,87.50
2023-05-06T14:21:40.294Z,87.50
2023-05-06T14:24:10.295Z,87.51
2023-05-06T14:26:39.122Z,87.81
2023-05-06T14:29:07.274Z,88.03
2023-05-06T14:31:35.607Z,88.28
2023-05-06T14:34:04.539Z,88.46
2023-05-06T14:36:32.707Z,88.42
2023-05-06T14:39:00.987Z,88.35
2023-05-06T14:41:29.050Z,88.39
2023-05-06T14:43:57.224Z,88.42
2023-05-06T14:46:27.700Z,88.40
2023-05-06T14:48:57.468Z,88.41
2023-05-06T14:51:25.741Z,88.63
2023-05-06T14:53:53.812Z,88.83
2023-05-06T14:56:21.880Z,89.14
2023-05-06T14:58:50.367Z,89.44
2023-05-06T15:01:18.674Z,89.26
2023-05-06T15:03:46.903Z,89.10
2023-05-06T15:06:15.187Z,88.70
2023-05-06T15:08:43.363Z,88.95
2023-05-06T15:11:12.035Z,89.27
2023-05-06T15:13:40.209Z,89.03
2023-05-06T15:16:11.081Z,89.08
2023-05-06T15:18:41.942Z,89.19
2023-05-06T15:21:10.011Z,89.32
2023-05-06T15:23:38.139Z,89.59
2023-05-06T15:26:06.642Z,89.68
2023-05-06T15:28:34.778Z,89.66
2023-05-06T15:31:02.942Z,89.74
2023-05-06T15:33:31.117Z,89.77
2023-05-06T15:35:59.491Z,89.49
2023-05-06T15:38:27.665Z,89.32
2023-05-06T15:40:55.838Z,89.62
2023-05-06T15:43:24.942Z,89.96
2023-05-06T15:45:53.204Z,90.15
2023-05-06T15:48:21.692Z,90.38
2023-05-06T15:50:49.787Z,89.97
2023-05-06T15:53:19.166Z,90.36
2023-05-06T15:55:54.545Z,90.37
2023-05-06T15:58:26.158Z,90.67
2023-05-06T16:00:54.219Z,90.40
2023-05-06T16:03:22.453Z,90.32
2023-05-06T16:05:53.447Z,90.38
2023-05-06T16:08:21.602Z,90.65
2023-05-06T16:10:51.932Z,90.28
2023-05-06T16:13:23.149Z,90.14
2023-05-06T16:15:51.897Z,90.52
2023-05-06T16:18:20.030Z,90.62
2023-05-06T16:20:48.233Z,90.93
2023-05-06T16:23:16.574Z,90.88
2023-05-06T16:25:44.753Z,90.80
2023-05-06T16:28:13.228Z,90.99
2023-05-06T16:30:44.729Z,90.98
2023-05-06T16:33:13.462Z,91.00
2023-05-06T16:35:41.950Z,91.16
2023-05-06T16:38:10.120Z,91.27
2023-05-06T16:40:44.883Z,91.25
2023-05-06T16:43:13.220Z,91.21
2023-05-06T16:45:45.415Z,91.18
2023-05-06T16:48:14.474Z,91.16
2023-05-06T16:50:42.855Z,91.08
2023-05-06T16:53:11.136Z,91.53
2023-05-06T16:55:39.213Z,91.20
2023-05-06T16:58:07.375Z,91.32
2023-05-06T17:00:35.664Z,91.44
2023-05-06T17:03:04.236Z,91.15
2023-05-06T17:05:32.402Z,91.51
2023-05-06T17:08:00.572Z,91.57
2023-05-06T17:10:29.560Z,91.35
2023-05-06T17:12:58.509Z,91.11
2023-05-06T17:15:26.842Z,91.12
2023-05-06T17:17:55.236Z,91.34
2023-05-06T17:20:23.892Z,91.62
2023-05-06T17:22:52.575Z,91.47
2023-05-06T17:25:21.265Z,91.75
2023-05-06T17:27:49.326Z,91.74
2023-05-06T17:30:17.504Z,91.78
2023-05-06T17:32:45.697Z,91.83
2023-05-06T17:35:13.948Z,91.78
2023-05-06T17:37:42.025Z,91.92
2023-05-06T17:40:10.397Z,92.12
2023-05-06T17:42:39.196Z,91.94
2023-05-06T17:45:08.566Z,91.69
2023-05-06T17:47:36.879Z,91.61
2023-05-06T17:50:05.747Z,91.52
2023-05-06T17:52:33.815Z,91.84
2023-05-06T17:55:15.703Z,91.62
2023-05-06T17:57:44.930Z,92.02
2023-05-06T18:00:14.177Z,91.87
2023-05-06T18:02:43.692Z,91.60
2023-05-06T18:05:13.464Z,91.75
2023-05-06T18:07:42.409Z,92.25
2023-05-06T18:10:11.101Z,92.04
2023-05-06T18:12:39.454Z,92.28
2023-05-06T18:15:09.030Z,92.30
2023-05-06T18:17:37.760Z,92.05
2023-05-06T18:20:08.220Z,92.55
2023-05-06T18:22:36.470Z,92.59
2023-05-06T18:25:05.250Z,92.61
2023-05-06T18:27:33.420Z,92.57
2023-05-06T18:30:01.592Z,92.46
2023-05-06T18:32:29.775Z,92.07
2023-05-06T18:34:58.550Z,92.31
2023-05-06T18:37:29.705Z,92.47
2023-05-06T18:39:57.876Z,92.49
2023-05-06T18:42:27.739Z,92.53
2023-05-06T18:44:56.689Z,92.84
2023-05-06T18:47:25.981Z,92.79
2023-05-06T18:49:54.343Z,92.62
2023-05-06T18:52:22.626Z,92.90
2023-05-06T18:54:51.201Z,92.84
2023-05-06T18:57:19.831Z,92.75
2023-05-06T18:59:48.159Z,92.77
2023-05-06T19:02:16.432Z,92.91
2023-05-06T19:04:44.916Z,92.69
2023-05-06T19:07:16.036Z,92.69
2023-05-06T19:09:44.436Z,92.92
2023-05-06T19:12:12.505Z,93.26
2023-05-06T19:14:40.881Z,93.13
2023-05-06T19:17:09.082Z,93.07
2023-05-06T19:19:37.434Z,93.30
2023-05-06T19:22:05.502Z,93.49
2023-05-06T19:24:33.678Z,93.27
2023-05-06T19:27:02.156Z,93.25
2023-05-06T19:29:30.433Z,93.19
2023-05-06T19:31:58.804Z,93.46
2023-05-06T19:34:26.980Z,93.42
2023-05-06T19:36:55.974Z,93.45
2023-05-06T19:39:24.348Z,93.70
2023-05-06T19:41:53.952Z,93.86
2023-05-06T19:44:22.150Z,93.75
2023-05-06T19:46:54.452Z,93.51
2023-05-06T19:49:22.853Z,93.45
2023-05-06T19:51:51.146Z,93.40
2023-05-06T19:54:20.039Z,93.43
2023-05-06T19:56:48.125Z,93.40
2023-05-06T19:59:17.714Z,93.59
2023-05-06T20:01:46.084Z,93.63
2023-05-06T20:04:14.374Z,93.75
2023-05-06T20:06:42.536Z,93.79
2023-05-06T20:09:10.614Z,93.58
2023-05-06T20:11:38.787Z,93.96
2023-05-06T20:14:06.951Z,93.95
2023-05-06T20:16:35.190Z,94.15
2023-05-06T20:19:03.404Z,93.91
2023-05-06T20:21:31.677Z,93.88
2023-05-06T20:23:59.868Z,93.89
2023-05-06T20:26:28.020Z,93.96
2023-05-06T20:28:56.092Z,93.87
2023-05-06T20:31:24.240Z,93.89
2023-05-06T20:33:52.545Z,94.27
2023-05-06T20:36:21.223Z,94.19
2023-05-06T20:38:50.212Z,94.61
2023-05-06T20:41:18.367Z,94.16
2023-05-06T20:43:46.557Z,93.98
2023-05-06T20:46:15.087Z,94.08
2023-05-06T20:48:43.308Z,94.32
2023-05-06T20:51:11.489Z,94.34
2023-05-06T20:53:39.957Z,94.32
2023-05-06T20:56:16.728Z,94.26
2023-05-06T20:58:44.906Z,94.03
2023-05-06T21:01:13.423Z,94.40
2023-05-06T21:03:42.135Z,94.61
2023-05-06T21:06:10.344Z,94.60
2023-05-06T21:08:38.447Z,94.67
2023-05-06T21:11:06.683Z,94.31
2023-05-06T21:13:34.854Z,94.64
2023-05-06T21:16:03.443Z,94.49
2023-05-06T21:18:31.986Z,94.39
2023-05-06T21:21:00.402Z,94.47
2023-05-06T21:23:28.673Z,94.45
2023-05-06T21:25:58.499Z,94.64
2023-05-06T21:28:26.706Z,94.79
2023-05-06T21:30:54.838Z,94.66
2023-05-06T21:33:23.009Z,94.77
2023-05-06T21:35:51.175Z,94.68
2023-05-06T21:38:19.239Z,94.96
2023-05-06T21:40:47.514Z,94.76
2023-05-06T21:43:18.088Z,94.87
2023-05-06T21:45:46.219Z,94.77
2023-05-06T21:48:14.281Z,94.82
2023-05-06T21:50:42.560Z,94.53
2023-05-06T21:53:10.736Z,94.71
2023-05-06T21:55:38.905Z,94.60
2023-05-06T21:58:07.286Z,94.57
2023-05-06T22:00:35.566Z,94.81
2023-05-06T22:03:03.968Z,94.93
2023-05-06T22:05:32.308Z,95.16
2023-05-06T22:08:00.481Z,94.68
2023-05-06T22:10:28.972Z,94.72
2023-05-06T22:12:57.175Z,94.47
2023-05-06T22:15:25.514Z,94.78
2023-05-06T22:17:53.623Z,94.48
2023-05-06T22:20:22.885Z,94.75
2023-05-06T22:22:52.154Z,95.02
2023-05-06T22:25:20.561Z,95.13
2023-05-06T22:27:48.731Z,94.86
2023-05-06T22:30:17.330Z,95.08
2023-05-06T22:32:45.538Z,95.02
2023-05-06T22:35:13.960Z,95.08
2023-05-06T22:37:42.137Z,95.25
2023-05-06T22:40:11.227Z,95.28
2023-05-06T22:42:39.404Z,95.20
2023-05-06T22:45:08.962Z,95.04
2023-05-06T22:47:37.433Z,95.33
2023-05-06T22:50:07.093Z,95.19
2023-05-06T22:52:35.164Z,95.03
